Terminal Aerodrome Forecast
Issued by NWS

Current Version | Previous Version | Graphics & Text | Print | Product List | Glossary On
Versions: 1 2 3 4 5 6 7 8 9 10 11 12 13 14 15 16 17 18 19 20 21 22 23 24 25 26 27 28 29 30
000
FTUS41 KILN 011449 AAB
TAFLUK
TAF AMD
KLUK 011449Z 0115/0212 20006KT P6SM FEW015 BKN080
     FM011700 26006KT P6SM VCSH SCT028 BKN035
      TEMPO 0119/0122 -SHRA
     FM012200 24005KT P6SM SCT050 BKN080
     FM020100 21003KT P6SM VCSH BKN050
     FM021100 29004KT P6SM SCT025 BKN035=

USA.gov is the U.S. government's official web portal to all federal, state and local government web resources and services.